Main page
METAR-TAF:

METAR-TAF

Airports :

Exeter Airport

Exeter, England

latitude: 50-44N, longitude: 003-25W, elevation: 30 m

Current weather observation

The report was made 34 minutes ago, at 22:50 UTC
Wind 6 kt from the West/Southwest
Temperature 13°C
Humidity 82%
Pressure 1021 hPa
Visibility 10 km or more
Few clouds at a height of 1800 ft
Broken clouds at a height of 2400 ft

METAR: EGTE 252250Z 25006KT 9999 FEW018 BKN024 13/10 Q1021

Time: 00:24 (23:24 UTC)

Forecast

The report was made 3 hours and 34 minutes ago, at 19:50 UTC
Forecast valid from 25 at 21 UTC to 26 at 04 UTC
Wind 12 kt from the West/Southwest
Visibility 10 km or more
Scattered clouds at a height of 1500 ft

TAF: EGTE 251950Z 2521/2604 25012KT 9999 SCT015

Weather observations and forecasts of more than 4000 airports (METAR and TAF reports).

The available stations are represented by yellow and red dots on the map.

Hover mouse over dot to see the name of the station.

Then click to see weather observations and forecasts.

To change the map : click on the green buttons with a black cross to zoom in, on the green button with a dash to zoom out, or on the green arrows for adjacent maps.


METAR-TAF: